CPA432 VHHH-RCKH
Flight info
| Callsign | CPA432 |
|---|---|
| Flight time | 0h 58m |
| Altitude | 35000 |
| Route | DALOL V631 ENVAR M750 DADON G581 PORCH |
| Aircraft | B77W/H-SDE1E2E3FGHIJ2J3J4J5M1RWXY/LB1D1 |
Departure
| Time | 2026-04-24 12:35 |
|---|---|
| Airport | Hong Kong International Airport (VHHH) |
Arrival
| Time | 2026-04-24 13:33 |
|---|---|
| Airport | Kaohsiung International Airport (RCKH) |
| Time | Latitude | Longitude | Altitude | Speed | Heading |
|---|---|---|---|---|---|
| 2026-04-24 11:39 | 22.31439 | 113.92925 | 40 ft | 0 kts | 161° |
| 2026-04-24 12:22 | 22.31460 | 113.92916 | 38 ft | 4 kts | 155° |
| 2026-04-24 12:22 | 22.31484 | 113.92903 | 38 ft | 4 kts | 157° |
| 2026-04-24 12:22 | 22.31508 | 113.92898 | 40 ft | 3 kts | 196° |
| 2026-04-24 12:23 | 22.31529 | 113.92907 | 38 ft | 4 kts | 238° |
| 2026-04-24 12:23 | 22.31532 | 113.92914 | 36 ft | 0 kts | 254° |
| 2026-04-24 12:24 | 22.31522 | 113.92885 | 40 ft | 14 kts | 249° |
| 2026-04-24 12:25 | 22.31497 | 113.92811 | 40 ft | 10 kts | 252° |
| 2026-04-24 12:25 | 22.31508 | 113.92728 | 40 ft | 16 kts | 292° |
| 2026-04-24 12:25 | 22.31580 | 113.92569 | 40 ft | 31 kts | 296° |
| 2026-04-24 12:25 | 22.31642 | 113.92359 | 40 ft | 27 kts | 258° |
| 2026-04-24 12:26 | 22.31583 | 113.92171 | 40 ft | 26 kts | 251° |
| 2026-04-24 12:26 | 22.31500 | 113.92069 | 40 ft | 16 kts | 173° |
| 2026-04-24 12:26 | 22.31393 | 113.92105 | 40 ft | 16 kts | 161° |
| 2026-04-24 12:26 | 22.31286 | 113.92145 | 40 ft | 16 kts | 161° |
| 2026-04-24 12:27 | 22.31180 | 113.92185 | 40 ft | 16 kts | 161° |
| 2026-04-24 12:27 | 22.31061 | 113.92230 | 40 ft | 21 kts | 161° |
| 2026-04-24 12:27 | 22.30908 | 113.92288 | 40 ft | 26 kts | 161° |
| 2026-04-24 12:27 | 22.30738 | 113.92335 | 40 ft | 15 kts | 194° |
| 2026-04-24 12:28 | 22.30694 | 113.92254 | 40 ft | 14 kts | 252° |
| 2026-04-24 12:28 | 22.30654 | 113.92132 | 40 ft | 21 kts | 251° |
| 2026-04-24 12:28 | 22.30591 | 113.91935 | 40 ft | 29 kts | 251° |
| 2026-04-24 12:28 | 22.30525 | 113.91731 | 40 ft | 29 kts | 251° |
| 2026-04-24 12:29 | 22.30459 | 113.91526 | 40 ft | 29 kts | 251° |
| 2026-04-24 12:29 | 22.30393 | 113.91321 | 40 ft | 29 kts | 251° |
| 2026-04-24 12:29 | 22.30327 | 113.91117 | 40 ft | 29 kts | 251° |
| 2026-04-24 12:29 | 22.30260 | 113.90912 | 40 ft | 29 kts | 251° |
| 2026-04-24 12:30 | 22.30195 | 113.90708 | 40 ft | 29 kts | 251° |
| 2026-04-24 12:30 | 22.30129 | 113.90503 | 40 ft | 29 kts | 251° |
| 2026-04-24 12:30 | 22.30062 | 113.90299 | 40 ft | 29 kts | 251° |
| 2026-04-24 12:30 | 22.29971 | 113.90198 | 40 ft | 15 kts | 166° |
| 2026-04-24 12:31 | 22.29907 | 113.90224 | 40 ft | 0 kts | 161° |
| 2026-04-24 12:32 | 22.29906 | 113.90224 | 40 ft | 2 kts | 161° |
| 2026-04-24 12:33 | 22.29817 | 113.90259 | 40 ft | 20 kts | 154° |
| 2026-04-24 12:33 | 22.29798 | 113.90351 | 40 ft | 5 kts | 70° |
| 2026-04-24 12:33 | 22.29799 | 113.90353 | 40 ft | 0 kts | 70° |
| 2026-04-24 12:34 | 22.29809 | 113.90381 | 40 ft | 21 kts | 70° |
| 2026-04-24 12:34 | 22.29998 | 113.90960 | 40 ft | 144 kts | 70° |
| 2026-04-24 12:34 | 22.30439 | 113.92342 | 396 ft | 226 kts | 70° |
| 2026-04-24 12:35 | 22.30959 | 113.93984 | 2037 ft | 231 kts | 71° |
| 2026-04-24 12:35 | 22.31493 | 113.95670 | 3556 ft | 246 kts | 72° |
| 2026-04-24 12:35 | 22.32068 | 113.97494 | 4295 ft | 268 kts | 72° |
| 2026-04-24 12:35 | 22.32698 | 113.99443 | 5172 ft | 280 kts | 71° |
| 2026-04-24 12:36 | 22.33357 | 114.01455 | 6197 ft | 288 kts | 71° |
| 2026-04-24 12:36 | 22.33902 | 114.03546 | 7084 ft | 293 kts | 87° |
| 2026-04-24 12:36 | 22.33553 | 114.05701 | 8000 ft | 295 kts | 118° |
| 2026-04-24 12:36 | 22.32304 | 114.07421 | 9143 ft | 287 kts | 144° |
| 2026-04-24 12:37 | 22.30595 | 114.08415 | 10381 ft | 274 kts | 166° |
| 2026-04-24 12:37 | 22.28764 | 114.08769 | 11440 ft | 264 kts | 184° |
| 2026-04-24 12:37 | 22.26928 | 114.08734 | 12272 ft | 267 kts | 185° |
| 2026-04-24 12:37 | 22.25053 | 114.08703 | 13125 ft | 272 kts | 185° |
| 2026-04-24 12:38 | 22.23152 | 114.08679 | 14028 ft | 274 kts | 185° |
| 2026-04-24 12:38 | 22.21233 | 114.08658 | 14851 ft | 278 kts | 186° |
| 2026-04-24 12:38 | 22.19287 | 114.08638 | 15674 ft | 281 kts | 187° |
| 2026-04-24 12:39 | 22.14313 | 114.12027 | 17719 ft | 325 kts | 119° |
| 2026-04-24 12:39 | 22.13284 | 114.14262 | 18249 ft | 343 kts | 118° |
| 2026-04-24 12:39 | 22.12223 | 114.16620 | 18804 ft | 355 kts | 118° |
| 2026-04-24 12:40 | 22.11122 | 114.19025 | 19558 ft | 359 kts | 119° |
| 2026-04-24 12:40 | 22.10008 | 114.21399 | 20427 ft | 360 kts | 120° |
| 2026-04-24 12:40 | 22.08852 | 114.23835 | 21373 ft | 360 kts | 120° |
| 2026-04-24 12:40 | 22.07611 | 114.26117 | 22200 ft | 357 kts | 133° |
| 2026-04-24 12:41 | 22.05786 | 114.27875 | 22948 ft | 352 kts | 149° |
| 2026-04-24 12:41 | 22.03771 | 114.29411 | 23748 ft | 356 kts | 149° |
| 2026-04-24 12:41 | 22.01741 | 114.30951 | 24466 ft | 359 kts | 149° |
| 2026-04-24 12:41 | 21.99703 | 114.32528 | 25160 ft | 363 kts | 149° |
| 2026-04-24 12:42 | 21.97647 | 114.34139 | 25807 ft | 369 kts | 149° |
| 2026-04-24 12:42 | 21.95520 | 114.35810 | 26031 ft | 389 kts | 149° |
| 2026-04-24 12:42 | 21.93271 | 114.37579 | 26173 ft | 411 kts | 148° |
| 2026-04-24 12:42 | 21.90908 | 114.39440 | 26296 ft | 431 kts | 148° |
| 2026-04-24 12:43 | 21.88438 | 114.41385 | 26416 ft | 450 kts | 148° |
| 2026-04-24 12:43 | 21.85998 | 114.43581 | 26471 ft | 469 kts | 135° |
| 2026-04-24 12:43 | 21.84124 | 114.46539 | 26597 ft | 491 kts | 117° |
| 2026-04-24 12:43 | 21.83033 | 114.50075 | 26760 ft | 504 kts | 107° |
| 2026-04-24 12:44 | 21.82165 | 114.53762 | 27039 ft | 513 kts | 106° |
| 2026-04-24 12:44 | 21.81301 | 114.57501 | 27451 ft | 516 kts | 107° |
| 2026-04-24 12:44 | 21.80407 | 114.61250 | 27952 ft | 518 kts | 107° |
| 2026-04-24 12:44 | 21.79472 | 114.65009 | 28364 ft | 522 kts | 108° |
| 2026-04-24 12:45 | 21.78503 | 114.68789 | 28713 ft | 527 kts | 108° |
| 2026-04-24 12:45 | 21.77512 | 114.72602 | 29064 ft | 531 kts | 108° |
| 2026-04-24 12:45 | 21.76514 | 114.76435 | 29460 ft | 533 kts | 108° |
| 2026-04-24 12:45 | 21.75517 | 114.80279 | 29998 ft | 533 kts | 108° |
| 2026-04-24 12:46 | 21.74550 | 114.84120 | 30497 ft | 533 kts | 105° |
| 2026-04-24 12:46 | 21.74053 | 114.88087 | 30917 ft | 538 kts | 94° |
| 2026-04-24 12:46 | 21.74055 | 114.92123 | 31371 ft | 540 kts | 90° |
| 2026-04-24 12:46 | 21.74178 | 114.96157 | 31800 ft | 541 kts | 89° |
| 2026-04-24 12:47 | 21.74296 | 115.00155 | 32262 ft | 541 kts | 90° |
| 2026-04-24 12:47 | 21.74361 | 115.04156 | 32702 ft | 542 kts | 90° |
| 2026-04-24 12:47 | 21.74373 | 115.08220 | 32976 ft | 547 kts | 91° |
| 2026-04-24 12:48 | 21.74322 | 115.16430 | 33010 ft | 545 kts | 91° |
| 2026-04-24 12:48 | 21.74302 | 115.20446 | 32995 ft | 528 kts | 91° |
| 2026-04-24 12:48 | 21.74290 | 115.24336 | 32996 ft | 512 kts | 91° |
| 2026-04-24 12:48 | 21.74285 | 115.28064 | 32996 ft | 497 kts | 91° |
| 2026-04-24 12:49 | 21.74279 | 115.31771 | 33018 ft | 497 kts | 91° |
| 2026-04-24 12:49 | 21.74260 | 115.39364 | 33037 ft | 514 kts | 92° |
| 2026-04-24 12:50 | 21.74238 | 115.47061 | 33026 ft | 515 kts | 92° |
| 2026-04-24 12:50 | 21.74213 | 115.54755 | 33019 ft | 514 kts | 92° |
| 2026-04-24 12:51 | 21.74185 | 115.62428 | 33017 ft | 513 kts | 92° |
| 2026-04-24 12:51 | 21.74158 | 115.70041 | 33017 ft | 512 kts | 92° |
| 2026-04-24 12:52 | 21.74128 | 115.77740 | 33026 ft | 512 kts | 92° |
| 2026-04-24 12:52 | 21.74095 | 115.85360 | 33026 ft | 513 kts | 92° |
| 2026-04-24 12:53 | 21.74057 | 115.93026 | 33023 ft | 513 kts | 92° |
| 2026-04-24 12:53 | 21.74016 | 116.00614 | 33030 ft | 513 kts | 92° |
| 2026-04-24 12:54 | 21.73979 | 116.07044 | 33025 ft | 513 kts | 92° |
| 2026-04-24 12:54 | 21.73932 | 116.14719 | 33027 ft | 513 kts | 92° |
| 2026-04-24 12:55 | 21.73881 | 116.22377 | 33023 ft | 512 kts | 92° |
| 2026-04-24 12:55 | 21.73826 | 116.30035 | 33029 ft | 511 kts | 92° |
| 2026-04-24 12:56 | 21.73769 | 116.37671 | 33022 ft | 510 kts | 92° |
| 2026-04-24 12:56 | 21.73708 | 116.45246 | 33032 ft | 509 kts | 92° |
| 2026-04-24 12:57 | 21.73643 | 116.52911 | 33028 ft | 509 kts | 92° |
| 2026-04-24 12:57 | 21.73574 | 116.60523 | 33035 ft | 508 kts | 92° |
| 2026-04-24 12:58 | 21.73504 | 116.68071 | 33030 ft | 508 kts | 92° |
| 2026-04-24 12:58 | 21.73630 | 116.75665 | 33026 ft | 509 kts | 84° |
| 2026-04-24 12:59 | 21.75039 | 116.83130 | 33032 ft | 511 kts | 72° |
| 2026-04-24 12:59 | 21.77549 | 116.90287 | 33041 ft | 513 kts | 67° |
| 2026-04-24 13:00 | 21.80226 | 116.97415 | 33040 ft | 515 kts | 67° |
| 2026-04-24 13:00 | 21.82837 | 117.04508 | 33042 ft | 516 kts | 68° |
| 2026-04-24 13:01 | 21.85440 | 117.11709 | 33039 ft | 516 kts | 68° |
| 2026-04-24 13:01 | 21.88033 | 117.18911 | 33030 ft | 513 kts | 68° |
| 2026-04-24 13:02 | 21.90581 | 117.25992 | 33027 ft | 503 kts | 68° |
| 2026-04-24 13:02 | 21.93115 | 117.33034 | 33050 ft | 506 kts | 69° |
| 2026-04-24 13:03 | 21.95692 | 117.40210 | 33066 ft | 525 kts | 69° |
| 2026-04-24 13:03 | 21.98354 | 117.47604 | 33033 ft | 531 kts | 67° |
| 2026-04-24 13:04 | 22.01688 | 117.54645 | 33045 ft | 530 kts | 57° |
| 2026-04-24 13:04 | 22.05640 | 117.61478 | 33053 ft | 542 kts | 57° |
| 2026-04-24 13:05 | 22.09608 | 117.68370 | 33031 ft | 539 kts | 57° |
| 2026-04-24 13:05 | 22.13504 | 117.75253 | 33040 ft | 537 kts | 57° |
| 2026-04-24 13:06 | 22.17397 | 117.82167 | 33061 ft | 545 kts | 57° |
| 2026-04-24 13:06 | 22.21346 | 117.89180 | 33047 ft | 546 kts | 57° |
| 2026-04-24 13:07 | 22.25156 | 117.96250 | 33040 ft | 544 kts | 65° |
| 2026-04-24 13:07 | 22.26367 | 118.00065 | 33050 ft | 543 kts | 77° |
| 2026-04-24 13:07 | 22.26975 | 118.03992 | 33058 ft | 541 kts | 87° |
| 2026-04-24 13:07 | 22.26990 | 118.08039 | 33032 ft | 537 kts | 99° |
| 2026-04-24 13:08 | 22.26474 | 118.11960 | 33054 ft | 534 kts | 102° |
| 2026-04-24 13:08 | 22.25422 | 118.19964 | 33045 ft | 535 kts | 101° |
| 2026-04-24 13:09 | 22.24067 | 118.31876 | 33046 ft | 536 kts | 100° |
| 2026-04-24 13:09 | 22.23155 | 118.39848 | 33041 ft | 535 kts | 100° |
| 2026-04-24 13:10 | 22.22231 | 118.47799 | 33044 ft | 533 kts | 100° |
| 2026-04-24 13:10 | 22.21304 | 118.55723 | 33043 ft | 532 kts | 100° |
| 2026-04-24 13:11 | 22.20367 | 118.63648 | 33050 ft | 534 kts | 100° |
| 2026-04-24 13:11 | 22.19419 | 118.71614 | 33037 ft | 533 kts | 100° |
| 2026-04-24 13:12 | 22.18482 | 118.79504 | 32929 ft | 525 kts | 100° |
| 2026-04-24 13:12 | 22.18020 | 118.83382 | 32582 ft | 517 kts | 100° |
| 2026-04-24 13:12 | 22.17560 | 118.87225 | 31805 ft | 518 kts | 100° |
| 2026-04-24 13:13 | 22.17093 | 118.91103 | 30805 ft | 524 kts | 99° |
| 2026-04-24 13:13 | 22.16619 | 118.95031 | 29764 ft | 530 kts | 99° |
| 2026-04-24 13:13 | 22.16145 | 118.98968 | 28970 ft | 527 kts | 99° |
| 2026-04-24 13:13 | 22.15675 | 119.02766 | 28378 ft | 520 kts | 99° |
| 2026-04-24 13:14 | 22.15191 | 119.06610 | 27804 ft | 514 kts | 100° |
| 2026-04-24 13:14 | 22.14714 | 119.10406 | 27210 ft | 508 kts | 99° |
| 2026-04-24 13:14 | 22.14255 | 119.14167 | 26569 ft | 504 kts | 99° |
| 2026-04-24 13:14 | 22.13808 | 119.17900 | 25953 ft | 500 kts | 99° |
| 2026-04-24 13:15 | 22.13366 | 119.21610 | 25346 ft | 496 kts | 99° |
| 2026-04-24 13:15 | 22.12927 | 119.25281 | 24767 ft | 492 kts | 99° |
| 2026-04-24 13:15 | 22.12489 | 119.28931 | 24194 ft | 489 kts | 99° |
| 2026-04-24 13:15 | 22.12052 | 119.32553 | 23645 ft | 485 kts | 99° |
| 2026-04-24 13:16 | 22.11616 | 119.36144 | 23021 ft | 481 kts | 100° |
| 2026-04-24 13:16 | 22.11185 | 119.39696 | 22468 ft | 475 kts | 100° |
| 2026-04-24 13:16 | 22.10758 | 119.43205 | 21958 ft | 469 kts | 100° |
| 2026-04-24 13:16 | 22.10336 | 119.46667 | 21428 ft | 463 kts | 100° |
| 2026-04-24 13:17 | 22.09916 | 119.50101 | 20916 ft | 458 kts | 100° |
| 2026-04-24 13:17 | 22.09509 | 119.53438 | 20220 ft | 439 kts | 101° |
| 2026-04-24 13:17 | 22.09115 | 119.56662 | 19014 ft | 428 kts | 101° |
| 2026-04-24 13:17 | 22.08727 | 119.59812 | 17709 ft | 421 kts | 101° |
| 2026-04-24 13:18 | 22.08338 | 119.62954 | 16501 ft | 428 kts | 101° |
| 2026-04-24 13:18 | 22.07939 | 119.66160 | 15660 ft | 433 kts | 101° |
| 2026-04-24 13:18 | 22.07545 | 119.69344 | 15327 ft | 423 kts | 101° |
| 2026-04-24 13:18 | 22.07158 | 119.72439 | 15137 ft | 414 kts | 101° |
| 2026-04-24 13:19 | 22.06776 | 119.75467 | 14968 ft | 394 kts | 101° |
| 2026-04-24 13:19 | 22.06424 | 119.78283 | 14532 ft | 368 kts | 101° |
| 2026-04-24 13:19 | 22.06081 | 119.80986 | 13955 ft | 364 kts | 101° |
| 2026-04-24 13:19 | 22.05735 | 119.83678 | 13628 ft | 360 kts | 101° |
| 2026-04-24 13:20 | 22.05399 | 119.86326 | 13367 ft | 353 kts | 101° |
| 2026-04-24 13:20 | 22.05084 | 119.88872 | 12884 ft | 343 kts | 98° |
| 2026-04-24 13:20 | 22.05243 | 119.91421 | 12105 ft | 345 kts | 76° |
| 2026-04-24 13:20 | 22.06037 | 119.93852 | 11415 ft | 341 kts | 66° |
| 2026-04-24 13:21 | 22.07299 | 119.95956 | 10908 ft | 330 kts | 44° |
| 2026-04-24 13:21 | 22.09144 | 119.97320 | 10449 ft | 316 kts | 19° |
| 2026-04-24 13:21 | 22.11236 | 119.97797 | 10014 ft | 302 kts | 1° |
| 2026-04-24 13:21 | 22.13309 | 119.97853 | 9512 ft | 295 kts | 357° |
| 2026-04-24 13:22 | 22.15336 | 119.97826 | 9087 ft | 289 kts | 356° |
| 2026-04-24 13:22 | 22.17328 | 119.97784 | 8863 ft | 284 kts | 356° |
| 2026-04-24 13:22 | 22.19287 | 119.97737 | 8613 ft | 280 kts | 356° |
| 2026-04-24 13:22 | 22.21230 | 119.97685 | 8305 ft | 279 kts | 356° |
| 2026-04-24 13:23 | 22.23155 | 119.97628 | 8100 ft | 274 kts | 356° |
| 2026-04-24 13:23 | 22.25056 | 119.97569 | 7818 ft | 273 kts | 356° |
| 2026-04-24 13:23 | 22.26963 | 119.97505 | 7470 ft | 274 kts | 356° |
| 2026-04-24 13:23 | 22.28868 | 119.97437 | 7170 ft | 274 kts | 356° |
| 2026-04-24 13:24 | 22.30767 | 119.97367 | 6901 ft | 272 kts | 356° |
| 2026-04-24 13:24 | 22.32652 | 119.97299 | 6631 ft | 270 kts | 356° |
| 2026-04-24 13:24 | 22.34523 | 119.97226 | 6361 ft | 268 kts | 356° |
| 2026-04-24 13:24 | 22.36386 | 119.97150 | 6078 ft | 267 kts | 355° |
| 2026-04-24 13:25 | 22.38226 | 119.97185 | 5706 ft | 264 kts | 12° |
| 2026-04-24 13:25 | 22.39934 | 119.97957 | 5247 ft | 270 kts | 28° |
| 2026-04-24 13:25 | 22.41535 | 119.98991 | 5040 ft | 265 kts | 30° |
| 2026-04-24 13:25 | 22.43082 | 120.00009 | 4880 ft | 258 kts | 29° |
| 2026-04-24 13:26 | 22.44578 | 120.00964 | 4744 ft | 251 kts | 29° |
| 2026-04-24 13:26 | 22.46060 | 120.01884 | 4744 ft | 244 kts | 28° |
| 2026-04-24 13:26 | 22.47548 | 120.02790 | 4746 ft | 245 kts | 28° |
| 2026-04-24 13:26 | 22.49035 | 120.03683 | 4738 ft | 243 kts | 28° |
| 2026-04-24 13:27 | 22.50509 | 120.04559 | 4724 ft | 242 kts | 27° |
| 2026-04-24 13:27 | 22.51993 | 120.05435 | 4595 ft | 248 kts | 27° |
| 2026-04-24 13:27 | 22.53529 | 120.06339 | 4291 ft | 252 kts | 27° |
| 2026-04-24 13:27 | 22.55086 | 120.07255 | 3994 ft | 251 kts | 27° |
| 2026-04-24 13:28 | 22.56592 | 120.08145 | 3705 ft | 245 kts | 30° |
| 2026-04-24 13:28 | 22.57761 | 120.09365 | 3410 ft | 227 kts | 63° |
| 2026-04-24 13:28 | 22.58113 | 120.10946 | 3341 ft | 218 kts | 84° |
| 2026-04-24 13:28 | 22.58254 | 120.12600 | 3249 ft | 222 kts | 85° |
| 2026-04-24 13:29 | 22.58318 | 120.14251 | 3126 ft | 216 kts | 90° |
| 2026-04-24 13:29 | 22.58290 | 120.15840 | 3049 ft | 207 kts | 91° |
| 2026-04-24 13:29 | 22.58243 | 120.17387 | 2890 ft | 207 kts | 91° |
| 2026-04-24 13:29 | 22.58194 | 120.18941 | 2607 ft | 206 kts | 91° |
| 2026-04-24 13:30 | 22.58146 | 120.20483 | 2333 ft | 204 kts | 91° |
| 2026-04-24 13:30 | 22.58100 | 120.22010 | 2066 ft | 202 kts | 90° |
| 2026-04-24 13:30 | 22.58054 | 120.23510 | 1821 ft | 197 kts | 90° |
| 2026-04-24 13:30 | 22.58010 | 120.24971 | 1554 ft | 189 kts | 91° |
| 2026-04-24 13:31 | 22.57968 | 120.26342 | 1301 ft | 175 kts | 91° |
| 2026-04-24 13:31 | 22.57930 | 120.27601 | 1088 ft | 160 kts | 90° |
| 2026-04-24 13:31 | 22.57894 | 120.28801 | 886 ft | 156 kts | 89° |
| 2026-04-24 13:31 | 22.57860 | 120.29937 | 743 ft | 152 kts | 89° |
| 2026-04-24 13:32 | 22.57825 | 120.31085 | 535 ft | 153 kts | 89° |
| 2026-04-24 13:32 | 22.57786 | 120.32210 | 351 ft | 150 kts | 89° |
| 2026-04-24 13:32 | 22.57756 | 120.33330 | 146 ft | 149 kts | 89° |
| 2026-04-24 13:32 | 22.57725 | 120.34431 | 42 ft | 138 kts | 90° |
| 2026-04-24 13:33 | 22.57697 | 120.35326 | 43 ft | 89 kts | 91° |
| 2026-04-24 13:33 | 22.57684 | 120.35760 | 44 ft | 39 kts | 92° |
| 2026-04-24 13:33 | 22.57647 | 120.35903 | 44 ft | 12 kts | 151° |
| 2026-04-24 13:33 | 22.57561 | 120.35913 | 43 ft | 13 kts | 197° |
| 2026-04-24 13:34 | 22.57514 | 120.35832 | 43 ft | 14 kts | 266° |
| 2026-04-24 13:34 | 22.57517 | 120.35727 | 43 ft | 14 kts | 271° |
| 2026-04-24 13:34 | 22.57520 | 120.35622 | 43 ft | 14 kts | 271° |
| 2026-04-24 13:34 | 22.57524 | 120.35516 | 43 ft | 14 kts | 272° |
| 2026-04-24 13:35 | 22.57527 | 120.35411 | 42 ft | 14 kts | 272° |
| 2026-04-24 13:35 | 22.57531 | 120.35308 | 42 ft | 14 kts | 272° |
| 2026-04-24 13:35 | 22.57534 | 120.35203 | 43 ft | 14 kts | 271° |
| 2026-04-24 13:35 | 22.57537 | 120.35098 | 43 ft | 14 kts | 272° |
| 2026-04-24 13:36 | 22.57539 | 120.35021 | 43 ft | 16 kts | 272° |
| 2026-04-24 13:36 | 22.57545 | 120.34842 | 43 ft | 20 kts | 272° |
| 2026-04-24 13:36 | 22.57550 | 120.34684 | 43 ft | 22 kts | 272° |
| 2026-04-24 13:36 | 22.57555 | 120.34510 | 44 ft | 24 kts | 272° |
| 2026-04-24 13:37 | 22.57561 | 120.34318 | 43 ft | 27 kts | 272° |
| 2026-04-24 13:37 | 22.57545 | 120.34142 | 43 ft | 21 kts | 226° |
| 2026-04-24 13:37 | 22.57471 | 120.34122 | 43 ft | 12 kts | 181° |
| 2026-04-24 13:37 | 22.57403 | 120.34072 | 43 ft | 14 kts | 227° |
| 2026-04-24 13:38 | 22.57338 | 120.34041 | 43 ft | 6 kts | 227° |
| 2026-04-24 13:38 | 22.57326 | 120.33997 | 43 ft | 0 kts | 270° |
| 2026-04-24 13:38 | 22.57327 | 120.33982 | 43 ft | 4 kts | 270° |
| 2026-04-24 13:38 | 22.57327 | 120.33977 | 43 ft | 0 kts | 270° |